createdAt,value
2023-04-20T00:00:22.080Z,12.20
2023-04-20T00:02:51.432Z,10.93
2023-04-20T00:05:23.275Z,10.13
2023-04-20T00:07:52.660Z,7.90
2023-04-20T00:10:21.476Z,12.40
2023-04-20T00:12:50.296Z,11.32
2023-04-20T00:15:19.127Z,8.20
2023-04-20T00:17:48.738Z,8.82
2023-04-20T00:20:18.517Z,10.45
2023-04-20T00:22:48.712Z,11.88
2023-04-20T00:25:17.679Z,10.05
2023-04-20T00:27:46.517Z,9.23
2023-04-20T00:30:16.469Z,10.52
2023-04-20T00:32:45.388Z,10.50
2023-04-20T00:35:15.965Z,13.00
2023-04-20T00:37:46.053Z,14.32
2023-04-20T00:40:16.467Z,10.02
2023-04-20T00:42:45.388Z,13.48
2023-04-20T00:45:14.458Z,13.30
2023-04-20T00:47:43.347Z,16.80
2023-04-20T00:50:12.706Z,13.50
2023-04-20T00:52:42.821Z,9.63
2023-04-20T00:55:12.724Z,10.30
2023-04-20T00:57:44.134Z,11.27
2023-04-20T01:00:13.828Z,11.15
2023-04-20T01:02:42.763Z,10.60
2023-04-20T01:05:12.384Z,14.93
2023-04-20T01:07:41.437Z,11.07
2023-04-20T01:10:11.296Z,11.10
2023-04-20T01:12:43.666Z,11.55
2023-04-20T01:15:14.336Z,13.38
2023-04-20T01:17:44.066Z,17.55
2023-04-20T01:20:13.342Z,13.52
2023-04-20T01:22:47.883Z,13.85
2023-04-20T01:25:17.648Z,11.55
2023-04-20T01:27:46.524Z,12.88
2023-04-20T01:30:17.327Z,13.15
2023-04-20T01:32:46.346Z,12.77
2023-04-20T01:35:15.982Z,12.18
2023-04-20T01:37:48.233Z,12.80
2023-04-20T01:40:17.158Z,17.63
2023-04-20T01:42:45.991Z,14.32
2023-04-20T01:45:14.905Z,14.18
2023-04-20T01:47:43.993Z,12.95
2023-04-20T01:50:12.855Z,14.95
2023-04-20T01:52:41.817Z,14.52
2023-04-20T01:55:13.426Z,20.05
2023-04-20T01:57:42.269Z,17.20
2023-04-20T02:00:12.350Z,11.77
2023-04-20T02:02:44.176Z,13.07
2023-04-20T02:05:13.171Z,15.07
2023-04-20T02:07:41.999Z,13.40
2023-04-20T02:10:11.656Z,13.73
2023-04-20T02:12:41.861Z,12.32
2023-04-20T02:15:11.629Z,11.73
2023-04-20T02:17:41.290Z,13.15
2023-04-20T02:20:11.350Z,11.48
2023-04-20T02:22:40.277Z,12.13
2023-04-20T02:25:11.086Z,19.58
2023-04-20T02:27:41.311Z,12.95
2023-04-20T02:30:11.954Z,15.50
2023-04-20T02:32:40.950Z,13.63
2023-04-20T02:35:10.624Z,13.50
2023-04-20T02:37:39.492Z,15.13
2023-04-20T02:40:09.878Z,10.30
2023-04-20T02:42:38.707Z,18.00
2023-04-20T02:45:12.674Z,16.55
2023-04-20T02:47:44.167Z,19.48
2023-04-20T02:50:16.550Z,15.20
2023-04-20T02:53:04.673Z,15.00
2023-04-20T02:55:36.381Z,13.60
2023-04-20T02:58:14.204Z,11.52
2023-04-20T03:01:10.913Z,14.90
2023-04-20T03:03:41.031Z,16.00
2023-04-20T03:06:13.266Z,13.98
2023-04-20T03:08:46.692Z,14.70
2023-04-20T03:11:34.084Z,13.27
2023-04-20T03:14:03.801Z,16.67
2023-04-20T03:16:34.137Z,17.98
2023-04-20T03:19:04.684Z,15.27
2023-04-20T03:21:34.172Z,11.07
2023-04-20T03:24:03.830Z,12.52
2023-04-20T03:26:32.606Z,25.58
2023-04-20T03:29:33.485Z,18.02
2023-04-20T03:32:04.959Z,19.38
2023-04-20T03:34:34.062Z,23.60
2023-04-20T03:37:03.849Z,19.08
2023-04-20T03:39:32.743Z,20.83
2023-04-20T03:42:02.080Z,23.55
2023-04-20T03:44:30.976Z,28.08
2023-04-20T03:46:59.909Z,24.23
2023-04-20T03:49:31.394Z,18.60
2023-04-20T03:52:00.277Z,16.27
2023-04-20T03:54:29.550Z,16.80
2023-04-20T03:56:58.614Z,20.83
2023-04-20T03:59:29.509Z,16.52
2023-04-20T04:01:58.413Z,16.52
2023-04-20T04:04:28.669Z,13.05
2023-04-20T04:07:02.096Z,13.55
2023-04-20T04:09:31.106Z,42.17
2023-04-20T04:11:59.944Z,15.38
2023-04-20T04:14:31.236Z,11.68
2023-04-20T04:17:00.666Z,19.48
2023-04-20T04:19:31.623Z,11.60
2023-04-20T04:22:03.455Z,14.15
2023-04-20T04:27:09.317Z,20.20
2023-04-20T04:29:42.907Z,15.38
2023-04-20T04:32:16.480Z,12.32
2023-04-20T04:34:45.400Z,19.50
2023-04-20T04:37:16.366Z,15.68
2023-04-20T04:39:51.161Z,15.85
2023-04-20T04:42:29.065Z,14.05
2023-04-20T04:45:02.139Z,15.50
2023-04-20T04:47:36.353Z,20.02
2023-04-20T04:50:06.083Z,17.08
2023-04-20T04:52:36.617Z,17.05
2023-04-20T04:55:08.481Z,17.17
2023-04-20T04:57:38.714Z,19.77
2023-04-20T05:00:12.052Z,15.98
2023-04-20T05:02:41.349Z,10.90
2023-04-20T05:05:10.797Z,18.20
2023-04-20T05:07:41.094Z,11.75
2023-04-20T05:10:10.149Z,9.82
2023-04-20T05:12:39.841Z,11.85
2023-04-20T05:15:09.799Z,10.23
2023-04-20T05:17:38.640Z,11.32
2023-04-20T05:20:10.639Z,13.60
2023-04-20T05:22:40.913Z,12.02
2023-04-20T05:25:13.298Z,12.27
2023-04-20T05:27:42.776Z,12.45
2023-04-20T05:30:20.304Z,10.75
2023-04-20T05:32:52.242Z,8.77
2023-04-20T05:35:22.492Z,9.70
2023-04-20T05:37:52.726Z,11.50
2023-04-20T05:40:21.795Z,9.98
2023-04-20T05:42:50.684Z,12.00
2023-04-20T05:45:19.691Z,10.23
2023-04-20T05:47:54.215Z,12.23
2023-04-20T05:50:23.609Z,8.90
2023-04-20T05:52:54.387Z,14.60
2023-04-20T05:55:23.494Z,11.80
2023-04-20T05:57:53.232Z,8.93
2023-04-20T06:00:24.555Z,12.82
2023-04-20T06:02:55.842Z,10.45
2023-04-20T06:05:25.136Z,12.55
2023-04-20T06:07:55.408Z,12.40
2023-04-20T06:10:24.439Z,14.30
2023-04-20T06:12:53.257Z,9.52
2023-04-20T06:15:22.083Z,10.68
2023-04-20T06:17:50.915Z,10.82
2023-04-20T06:20:20.505Z,13.48
2023-04-20T06:22:49.592Z,11.57
2023-04-20T06:25:20.171Z,11.75
2023-04-20T06:27:51.315Z,16.08
2023-04-20T06:30:21.513Z,27.65
2023-04-20T06:32:50.741Z,60.22
2023-04-20T06:35:19.806Z,25.95
2023-04-20T06:37:48.678Z,43.35
2023-04-20T06:40:17.588Z,21.80
2023-04-20T06:42:47.798Z,12.55
2023-04-20T06:45:16.735Z,8.80
2023-04-20T06:47:45.720Z,8.30
2023-04-20T06:50:14.664Z,9.18
2023-04-20T06:52:43.697Z,12.13
2023-04-20T06:55:13.375Z,10.48
2023-04-20T06:57:44.085Z,9.75
2023-04-20T07:00:15.528Z,11.52
2023-04-20T07:02:46.112Z,9.75
2023-04-20T07:05:15.634Z,11.93
2023-04-20T07:07:44.892Z,9.00
2023-04-20T07:10:15.601Z,16.20
2023-04-20T07:12:46.244Z,9.63
2023-04-20T07:15:16.451Z,10.00
2023-04-20T07:17:45.382Z,10.50
2023-04-20T07:20:14.500Z,8.75
2023-04-20T07:22:43.549Z,7.60
2023-04-20T07:25:12.442Z,14.63
2023-04-20T07:27:42.475Z,7.85
2023-04-20T07:30:12.317Z,8.57
2023-04-20T07:32:43.263Z,9.90
2023-04-20T07:35:12.283Z,14.43
2023-04-20T07:37:41.295Z,11.90
2023-04-20T07:40:11.374Z,8.82
2023-04-20T07:42:40.510Z,7.97
2023-04-20T07:45:12.675Z,12.35
2023-04-20T07:47:44.938Z,14.07
2023-04-20T07:50:14.178Z,7.80
2023-04-20T07:52:44.448Z,9.57
2023-04-20T07:55:14.351Z,6.30
2023-04-20T07:57:43.185Z,9.43
2023-04-20T08:00:14.225Z,9.63
2023-04-20T08:02:44.567Z,11.60
2023-04-20T08:05:14.108Z,6.35
2023-04-20T08:07:43.194Z,7.93
2023-04-20T08:10:12.381Z,9.50
2023-04-20T08:12:41.434Z,9.23
2023-04-20T08:15:11.539Z,7.88
2023-04-20T08:17:40.867Z,9.35
2023-04-20T08:20:11.668Z,7.55
2023-04-20T08:22:40.838Z,7.07
2023-04-20T08:25:10.100Z,7.72
2023-04-20T08:27:39.386Z,7.65
2023-04-20T08:30:09.227Z,6.13
2023-04-20T08:32:38.226Z,6.25
2023-04-20T08:35:07.574Z,13.32
2023-04-20T08:37:38.740Z,7.38
2023-04-20T08:40:09.016Z,6.97
2023-04-20T08:42:37.973Z,9.00
2023-04-20T08:45:07.720Z,8.20
2023-04-20T08:47:38.061Z,5.93
2023-04-20T08:50:09.134Z,6.38
2023-04-20T08:52:40.205Z,6.70
2023-04-20T08:55:09.794Z,7.18
2023-04-20T08:57:38.602Z,8.20
2023-04-20T09:00:13.440Z,4.63
2023-04-20T09:05:29.249Z,5.72
2023-04-20T09:08:02.097Z,7.57
2023-04-20T09:10:41.366Z,5.10
2023-04-20T09:13:11.055Z,7.35
2023-04-20T09:15:39.847Z,7.20
2023-04-20T09:18:16.223Z,8.30
2023-04-20T09:20:45.017Z,6.30
2023-04-20T09:23:16.328Z,7.97
2023-04-20T09:25:46.422Z,7.05
2023-04-20T09:28:16.557Z,9.80
2023-04-20T09:30:47.469Z,3.70
2023-04-20T09:33:16.668Z,9.80
2023-04-20T09:35:46.443Z,6.60
2023-04-20T09:38:18.460Z,10.05
2023-04-20T09:40:47.341Z,9.50
2023-04-20T09:43:20.351Z,7.63
2023-04-20T09:45:50.534Z,12.90
2023-04-20T09:48:20.979Z,9.20
2023-04-20T09:50:51.662Z,8.68
2023-04-20T09:53:22.253Z,8.80
2023-04-20T09:55:52.527Z,6.45
2023-04-20T09:58:22.035Z,9.80
2023-04-20T10:00:51.641Z,10.85
2023-04-20T10:03:21.852Z,10.63
2023-04-20T10:05:52.983Z,8.20
2023-04-20T10:08:24.492Z,9.75
2023-04-20T10:10:53.305Z,9.43
2023-04-20T10:13:23.345Z,8.00
2023-04-20T10:15:52.209Z,15.15
2023-04-20T10:18:23.786Z,7.93
2023-04-20T10:20:53.600Z,8.27
2023-04-20T10:23:23.951Z,4.70
2023-04-20T10:26:00.988Z,5.15
2023-04-20T10:28:40.763Z,3.08
2023-04-20T10:31:13.311Z,10.27
2023-04-20T10:33:53.018Z,9.90
2023-04-20T10:36:26.658Z,5.05
2023-04-20T10:38:57.176Z,9.75
2023-04-20T10:41:26.049Z,8.65
2023-04-20T10:43:55.049Z,7.38
2023-04-20T10:46:26.364Z,4.80
2023-04-20T10:48:56.712Z,3.90
2023-04-20T10:51:27.046Z,10.15
2023-04-20T10:54:06.232Z,2.55
2023-04-20T10:56:41.927Z,4.53
2023-04-20T10:59:11.889Z,8.55
2023-04-20T11:01:41.464Z,7.85
2023-04-20T11:04:10.606Z,6.97
2023-04-20T11:06:40.697Z,3.35
2023-04-20T11:09:21.860Z,6.63
2023-04-20T11:12:00.556Z,4.82
2023-04-20T11:14:30.144Z,4.85
2023-04-20T11:16:59.058Z,10.57
2023-04-20T11:19:29.410Z,11.60
2023-04-20T11:21:59.434Z,9.32
2023-04-20T11:24:31.177Z,3.38
2023-04-20T11:27:01.979Z,1.88
2023-04-20T11:29:32.615Z,4.22
2023-04-20T11:32:04.164Z,3.33
2023-04-20T11:34:34.564Z,2.17
2023-04-20T11:37:07.728Z,5.53
2023-04-20T11:39:39.343Z,2.70
2023-04-20T11:42:08.299Z,3.40
2023-04-20T11:44:37.532Z,2.33
2023-04-20T11:47:06.441Z,2.60
2023-04-20T11:49:35.290Z,2.20
2023-04-20T11:52:04.346Z,5.10
2023-04-20T11:54:35.075Z,2.25
2023-04-20T11:57:05.331Z,3.83
2023-04-20T11:59:34.262Z,3.85
2023-04-20T12:02:04.609Z,1.80
2023-04-20T12:04:34.786Z,3.03
2023-04-20T12:07:03.993Z,6.93
2023-04-20T12:09:36.206Z,2.00
2023-04-20T12:12:07.231Z,4.60
2023-04-20T12:14:36.519Z,3.30
2023-04-20T12:17:06.085Z,9.07
2023-04-20T12:19:35.420Z,4.38
2023-04-20T12:22:04.534Z,4.40
2023-04-20T12:24:33.312Z,2.90
2023-04-20T12:27:03.844Z,9.18
2023-04-20T12:29:34.148Z,4.28
2023-04-20T12:32:03.762Z,3.40
2023-04-20T12:34:32.616Z,4.00
2023-04-20T12:37:02.078Z,3.92
2023-04-20T12:39:30.969Z,5.88
2023-04-20T12:42:00.217Z,3.63
2023-04-20T12:44:29.766Z,4.07
2023-04-20T12:47:00.070Z,3.22
2023-04-20T12:49:30.598Z,2.05
2023-04-20T12:52:00.351Z,3.28
2023-04-20T12:54:29.202Z,2.50
2023-04-20T12:56:58.210Z,3.10
2023-04-20T12:59:27.042Z,3.75
2023-04-20T13:01:56.076Z,3.42
2023-04-20T13:04:26.477Z,3.80
2023-04-20T13:06:55.876Z,3.72
2023-04-20T13:09:27.116Z,5.95
2023-04-20T13:11:56.376Z,7.03
2023-04-20T13:14:25.178Z,13.02
2023-04-20T13:16:55.355Z,4.03
2023-04-20T13:19:24.585Z,4.07
2023-04-20T13:21:54.832Z,2.42
2023-04-20T13:24:23.738Z,4.18
2023-04-20T13:26:56.966Z,10.02
2023-04-20T13:29:26.142Z,8.48
2023-04-20T13:31:55.045Z,3.78
2023-04-20T13:34:23.965Z,5.07
2023-04-20T13:36:54.175Z,4.13
2023-04-20T13:39:23.217Z,3.30
2023-04-20T13:41:52.034Z,4.38
2023-04-20T13:44:21.264Z,3.65
2023-04-20T13:46:50.336Z,7.28
2023-04-20T13:49:22.683Z,3.45
2023-04-20T13:51:51.759Z,2.75
2023-04-20T13:54:21.925Z,2.78
2023-04-20T13:56:50.873Z,2.80
2023-04-20T13:59:19.710Z,6.78
2023-04-20T14:01:48.579Z,2.55
2023-04-20T14:04:17.912Z,3.15
2023-04-20T14:06:46.954Z,1.90
2023-04-20T14:09:16.300Z,1.60
2023-04-20T14:11:48.114Z,4.75
2023-04-20T14:14:18.610Z,2.67
2023-04-20T14:16:49.213Z,2.10
2023-04-20T14:19:18.049Z,2.08
2023-04-20T14:21:47.440Z,5.50
2023-04-20T14:24:16.332Z,3.78
2023-04-20T14:26:46.747Z,2.42
2023-04-20T14:29:15.873Z,3.28
2023-04-20T14:31:44.854Z,3.10
2023-04-20T14:34:14.267Z,3.50
2023-04-20T14:36:43.104Z,3.25
2023-04-20T14:39:11.833Z,5.32
2023-04-20T14:41:40.676Z,3.28
2023-04-20T14:44:10.800Z,3.22
2023-04-20T14:46:42.455Z,8.40
2023-04-20T14:49:11.785Z,2.20
2023-04-20T14:51:40.984Z,2.47
2023-04-20T14:54:09.914Z,3.40
2023-04-20T14:56:38.705Z,5.78
2023-04-20T14:59:07.608Z,2.08
2023-04-20T15:01:38.759Z,4.57
2023-04-20T15:04:08.876Z,3.88
2023-04-20T15:06:37.770Z,2.85
2023-04-20T15:09:06.532Z,2.85
2023-04-20T15:11:35.450Z,1.88
2023-04-20T15:14:04.270Z,3.10
2023-04-20T15:16:33.014Z,3.55
2023-04-20T15:19:03.332Z,6.05
2023-04-20T15:21:32.326Z,6.70
2023-04-20T15:24:02.051Z,6.57
2023-04-20T15:26:30.805Z,4.43
2023-04-20T15:28:59.638Z,1.67
2023-04-20T15:31:28.717Z,10.68
2023-04-20T15:34:00.298Z,1.80
2023-04-20T15:36:31.010Z,7.70
2023-04-20T15:38:59.896Z,5.50
2023-04-20T15:41:28.632Z,15.32
2023-04-20T15:43:57.394Z,3.83
2023-04-20T15:46:26.606Z,3.00
2023-04-20T15:48:55.474Z,3.22
2023-04-20T15:51:24.921Z,4.68
2023-04-20T15:53:55.051Z,5.07
2023-04-20T15:56:24.314Z,3.78
2023-04-20T15:58:53.176Z,5.00
2023-04-20T16:01:22.435Z,4.05
2023-04-20T16:03:51.469Z,4.88
2023-04-20T16:06:20.359Z,4.65
2023-04-20T16:08:53.237Z,4.40
2023-04-20T16:11:23.529Z,12.27
2023-04-20T16:13:59.655Z,7.03
2023-04-20T16:16:28.577Z,8.05
2023-04-20T16:18:57.376Z,6.60
2023-04-20T16:21:26.485Z,7.28
2023-04-20T16:23:56.767Z,5.22
2023-04-20T16:26:27.104Z,4.72
2023-04-20T16:28:55.934Z,9.02
2023-04-20T16:31:29.607Z,6.07
2023-04-20T16:33:58.943Z,11.48
2023-04-20T16:36:27.962Z,8.82
2023-04-20T16:38:57.018Z,10.68
2023-04-20T16:41:27.232Z,3.20
2023-04-20T16:43:56.049Z,4.97
2023-04-20T16:46:34.197Z,8.02
2023-04-20T16:49:04.442Z,16.35
2023-04-20T16:51:33.335Z,4.93
2023-04-20T16:54:02.616Z,7.28
2023-04-20T16:56:32.787Z,3.47
2023-04-20T16:59:02.103Z,6.45
2023-04-20T17:01:31.173Z,6.25
2023-04-20T17:04:00.996Z,21.50
2023-04-20T17:06:29.978Z,5.38
2023-04-20T17:09:05.402Z,5.80
2023-04-20T17:11:36.139Z,3.30
2023-04-20T17:14:04.945Z,2.35
2023-04-20T17:16:34.113Z,9.85
2023-04-20T17:19:03.830Z,10.75
2023-04-20T17:21:32.659Z,17.83
2023-04-20T17:24:01.449Z,4.85
2023-04-20T17:26:30.230Z,4.93
2023-04-20T17:29:00.398Z,7.80
2023-04-20T17:31:31.332Z,14.68
2023-04-20T17:34:00.102Z,6.65
2023-04-20T17:36:30.075Z,22.67
2023-04-20T17:38:58.805Z,5.60
2023-04-20T17:41:27.532Z,6.50
2023-04-20T17:43:56.349Z,9.20
2023-04-20T17:46:26.613Z,10.05
2023-04-20T17:48:55.371Z,11.45
2023-04-20T17:51:24.106Z,8.80
2023-04-20T17:53:52.994Z,6.53
2023-04-20T17:56:21.811Z,4.57
2023-04-20T17:58:50.597Z,4.00
2023-04-20T18:01:19.499Z,11.80
2023-04-20T18:03:50.806Z,13.43
2023-04-20T18:06:19.633Z,10.60
2023-04-20T18:08:48.458Z,22.65
2023-04-20T18:11:17.213Z,15.80
2023-04-20T18:13:46.006Z,13.48
2023-04-20T18:16:14.795Z,14.82
2023-04-20T18:18:43.647Z,9.52
2023-04-20T18:21:14.339Z,5.57
2023-04-20T18:23:43.116Z,9.73
2023-04-20T18:26:17.333Z,6.57
2023-04-20T18:28:46.137Z,4.82
2023-04-20T18:31:15.313Z,6.78
2023-04-20T18:33:44.138Z,6.15
2023-04-20T18:36:14.319Z,7.43
2023-04-20T18:38:43.093Z,8.57
2023-04-20T18:41:12.333Z,10.45
2023-04-20T18:43:41.482Z,5.25
2023-04-20T18:46:10.581Z,6.55
2023-04-20T18:48:39.381Z,12.27
2023-04-20T18:51:08.147Z,5.93
2023-04-20T18:53:38.309Z,6.85
2023-04-20T18:58:35.980Z,6.50
2023-04-20T19:01:04.786Z,7.65
2023-04-20T19:03:33.742Z,7.80
2023-04-20T19:06:02.522Z,11.55
2023-04-20T19:08:32.221Z,18.50
2023-04-20T19:11:02.382Z,11.77
2023-04-20T19:13:31.117Z,11.15
2023-04-20T19:16:00.112Z,15.18
2023-04-20T19:18:29.608Z,10.88
2023-04-20T19:20:58.617Z,10.23
2023-04-20T19:23:27.353Z,9.07
2023-04-20T19:25:56.246Z,6.90
2023-04-20T19:28:26.437Z,10.15
2023-04-20T19:30:55.211Z,10.45
2023-04-20T19:33:24.022Z,6.00
2023-04-20T19:35:52.872Z,12.25
2023-04-20T19:38:24.398Z,19.33
2023-04-20T19:40:54.053Z,17.42
2023-04-20T19:43:22.819Z,15.35
2023-04-20T19:45:53.037Z,11.95
2023-04-20T19:48:21.906Z,9.95
2023-04-20T19:50:51.631Z,9.32
2023-04-20T19:53:21.416Z,8.60
2023-04-20T19:55:50.157Z,10.90
2023-04-20T19:58:18.883Z,7.50
2023-04-20T20:00:47.827Z,14.48
2023-04-20T20:03:18.016Z,22.23
2023-04-20T20:05:46.886Z,27.77
2023-04-20T20:08:16.653Z,24.50
2023-04-20T20:10:45.418Z,21.10
2023-04-20T20:13:14.215Z,15.23
2023-04-20T20:15:44.643Z,12.35
2023-04-20T20:18:14.323Z,14.85
2023-04-20T20:20:44.480Z,10.77
2023-04-20T20:23:13.782Z,14.25
2023-04-20T20:25:42.621Z,16.40
2023-04-20T20:28:11.515Z,40.10
2023-04-20T20:30:41.560Z,27.42
2023-04-20T20:33:10.430Z,23.58
2023-04-20T20:35:39.941Z,28.33
2023-04-20T20:38:11.161Z,35.67
2023-04-20T20:40:40.904Z,23.27
2023-04-20T20:43:10.779Z,19.38
2023-04-20T20:45:39.848Z,25.30
2023-04-20T20:48:08.775Z,26.25
2023-04-20T20:50:37.655Z,23.58
2023-04-20T20:53:07.208Z,26.25
2023-04-20T20:55:37.524Z,22.30
2023-04-20T20:58:06.528Z,21.73
2023-04-20T21:00:35.669Z,29.67
2023-04-20T21:03:04.738Z,37.67
2023-04-20T21:05:35.593Z,50.47
2023-04-20T21:08:04.718Z,38.20
2023-04-20T21:10:33.544Z,40.08
2023-04-20T21:13:04.076Z,41.60
2023-04-20T21:15:32.925Z,47.85
2023-04-20T21:18:02.095Z,81.13
2023-04-20T21:20:30.980Z,46.45
2023-04-20T21:22:59.749Z,54.05
2023-04-20T21:25:28.590Z,68.65
2023-04-20T21:27:57.677Z,31.58
2023-04-20T21:30:31.378Z,31.13
2023-04-20T21:33:00.274Z,26.67
2023-04-20T21:35:29.912Z,23.88
2023-04-20T21:37:58.768Z,27.98
2023-04-20T21:40:27.650Z,25.15
2023-04-20T21:42:56.473Z,25.67
2023-04-20T21:45:25.259Z,20.23
2023-04-20T21:47:56.455Z,22.45
2023-04-20T21:50:27.238Z,35.53
2023-04-20T21:52:56.304Z,32.20
2023-04-20T21:55:25.362Z,22.08
2023-04-20T21:57:54.227Z,25.67
2023-04-20T22:00:23.295Z,22.02
2023-04-20T22:02:52.285Z,26.50
2023-04-20T22:05:22.952Z,21.58
2023-04-20T22:07:53.202Z,28.15
2023-04-20T22:10:22.338Z,21.58
2023-04-20T22:12:51.218Z,23.98
2023-04-20T22:15:22.257Z,30.73
2023-04-20T22:17:51.224Z,27.40
2023-04-20T22:20:20.123Z,26.02
2023-04-20T22:22:50.308Z,21.02
2023-04-20T22:25:19.148Z,17.10
2023-04-20T22:27:47.942Z,17.52
2023-04-20T22:30:17.109Z,14.73
2023-04-20T22:32:46.062Z,11.95
2023-04-20T22:35:15.302Z,12.07
2023-04-20T22:37:44.163Z,14.60
2023-04-20T22:40:14.726Z,36.95
2023-04-20T22:42:43.540Z,31.08
2023-04-20T22:45:12.773Z,37.08
2023-04-20T22:47:41.928Z,22.63
2023-04-20T22:50:12.258Z,24.15
2023-04-20T22:52:41.596Z,24.50
2023-04-20T22:55:11.589Z,30.92
2023-04-20T22:57:41.821Z,24.27
2023-04-20T23:00:13.656Z,28.08
2023-04-20T23:02:42.729Z,24.88
2023-04-20T23:05:11.929Z,22.05
2023-04-20T23:07:41.492Z,25.88
2023-04-20T23:10:11.857Z,29.00
2023-04-20T23:12:42.818Z,23.40
2023-04-20T23:15:12.586Z,18.70
2023-04-20T23:17:41.611Z,23.80
2023-04-20T23:20:13.741Z,26.05
2023-04-20T23:22:42.932Z,21.40
2023-04-20T23:25:11.777Z,32.88
2023-04-20T23:27:41.937Z,21.52
2023-04-20T23:30:11.538Z,14.73
2023-04-20T23:32:42.367Z,25.30
2023-04-20T23:35:12.791Z,18.30
2023-04-20T23:37:41.636Z,24.25
2023-04-20T23:40:11.975Z,21.38
2023-04-20T23:42:42.188Z,19.48
2023-04-20T23:45:12.013Z,16.50
2023-04-20T23:47:40.980Z,20.58
2023-04-20T23:50:10.721Z,22.05
2023-04-20T23:52:40.665Z,17.77
2023-04-20T23:55:10.634Z,13.57
2023-04-20T23:57:39.621Z,18.85
